Time;durP1;ratioP1;P1;durP2;ratioP2;P2;SDS_P1;SDS_P2;PMS_P1;PMS_P2;Temp;Humidity;BMP_temperature;BMP_pressure;BME280_temperature;BME280_humidity;BME280_pressure;Samples;Min_cycle;Max_cycle;Signal;HPM_P1;HPM_P2
2023/07/14 00:01:26;;;;;;;10.13;6.22;;;;;;;26.37;nan;62374.19;5032035;28;20186;-60
2023/07/14 00:03:52;;;;;;;10.32;6.38;;;;;;;26.48;nan;62370.44;5032119;28;20306;-60
2023/07/14 00:06:18;;;;;;;10.73;6.30;;;;;;;26.46;nan;62397.56;5030858;28;20266;-60
2023/07/14 00:08:45;;;;;;;10.30;6.47;;;;;;;26.55;nan;62483.28;5031724;28;20201;-60
2023/07/14 00:11:17;;;;;;;9.23;6.03;;;;;;;23.95;nan;62130.34;5031880;28;20266;-59
2023/07/14 00:13:43;;;;;;;9.40;6.45;;;;;;;23.97;nan;62163.38;5031805;28;20256;-60
2023/07/14 00:16:14;;;;;;;8.98;6.03;;;;;;;26.45;nan;62388.53;5031791;28;20221;-61
2023/07/14 00:18:40;;;;;;;12.20;6.70;;;;;;;26.13;nan;62294.94;5031649;28;20671;-60
2023/07/14 00:21:13;;;;;;;10.27;6.53;;;;;;;26.30;nan;62486.75;5032803;28;20301;-60
2023/07/14 00:23:38;;;;;;;10.27;6.53;;;;;;;26.22;nan;62326.19;5035997;28;20737;-61
2023/07/14 00:26:07;;;;;;;11.75;6.88;;;;;;;26.20;nan;62352.13;5036061;28;20691;-61
2023/07/14 00:28:32;;;;;;;8.88;6.15;;;;;;;26.14;nan;62453.28;5035971;28;20228;-60
2023/07/14 00:30:58;;;;;;;11.70;6.85;;;;;;;26.15;nan;62331.28;5035821;28;20565;-61
2023/07/14 00:33:23;;;;;;;13.25;6.57;;;;;;;26.11;nan;62352.91;5035717;28;20175;-64
2023/07/14 00:35:49;;;;;;;13.75;6.47;;;;;;;26.21;nan;62414.13;5035719;28;20708;-61
2023/07/14 00:38:14;;;;;;;11.05;6.63;;;;;;;25.79;nan;62369.34;5035765;28;20606;-61
2023/07/14 00:40:43;;;;;;;11.27;6.93;;;;;;;25.86;nan;62319.72;5036027;28;20170;-61
2023/07/14 00:43:18;;;;;;;10.27;7.10;;;;;;;26.11;nan;62303.16;5036249;28;20185;-62
2023/07/14 00:45:45;;;;;;;11.55;7.40;;;;;;;25.82;nan;62416.69;5035738;28;20175;-61
2023/07/14 00:48:15;;;;;;;13.13;6.55;;;;;;;25.93;nan;62382.72;5035592;28;20663;-60
2023/07/14 00:50:45;;;;;;;11.30;7.05;;;;;;;25.86;nan;62300.81;5035623;28;20171;-61
2023/07/14 00:53:37;;;;;;;12.15;6.93;;;;;;;25.88;nan;62355.47;5035769;28;20167;-61
2023/07/14 00:56:14;;;;;;;10.30;6.63;;;;;;;25.79;nan;62403.38;5030857;28;20733;-61
2023/07/14 00:58:46;;;;;;;10.70;6.78;;;;;;;25.74;nan;62256.28;5006617;28;20257;-62
2023/07/14 01:01:24;;;;;;;12.45;7.15;;;;;;;25.72;nan;62266.50;4404653;28;21175;-61
2023/07/14 01:03:56;;;;;;;10.95;6.20;;;;;;;25.70;nan;62282.56;5020701;28;20245;-59
2023/07/14 01:06:39;;;;;;;9.10;6.40;;;;;;;25.37;nan;62235.59;5035317;28;20185;-59
2023/07/14 01:09:13;;;;;;;10.85;6.97;;;;;;;25.59;nan;62270.59;5035069;28;20249;-60
2023/07/14 01:11:52;;;;;;;14.20;6.97;;;;;;;25.49;nan;62282.72;5035706;28;20247;-59
2023/07/14 01:14:27;;;;;;;10.32;6.65;;;;;;;25.29;nan;62171.53;5035175;28;20168;-60
2023/07/14 01:16:54;;;;;;;10.07;6.30;;;;;;;25.27;nan;62249.78;5034766;28;20229;-60
2023/07/14 01:19:31;;;;;;;11.13;6.65;;;;;;;25.42;nan;62340.16;5034593;28;20175;-59
2023/07/14 01:22:12;;;;;;;11.43;6.60;;;;;;;25.17;nan;62196.53;5034733;28;20180;-60
2023/07/14 01:24:47;;;;;;;10.30;6.10;;;;;;;25.28;nan;62295.97;5034847;28;20225;-60
2023/07/14 01:27:12;;;;;;;10.80;6.63;;;;;;;25.12;nan;62094.63;5034955;28;20217;-60
2023/07/14 01:29:39;;;;;;;12.38;6.97;;;;;;;25.34;nan;62237.41;5034674;28;20171;-60
2023/07/14 01:32:14;;;;;;;12.00;7.30;;;;;;;25.29;nan;62293.94;5034186;28;20221;-60
2023/07/14 01:34:40;;;;;;;10.02;6.80;;;;;;;25.27;nan;62187.56;5034363;28;20233;-60
2023/07/14 01:37:06;;;;;;;10.13;6.43;;;;;;;24.50;nan;62093.19;5034680;28;20223;-59
2023/07/14 01:39:32;;;;;;;11.38;7.10;;;;;;;25.14;nan;62212.00;5034738;28;20171;-60
2023/07/14 01:41:58;;;;;;;10.95;6.68;;;;;;;25.01;nan;62184.09;5034890;28;20259;-59
2023/07/14 01:44:24;;;;;;;9.35;6.55;;;;;;;24.71;nan;62077.28;5034626;28;20654;-59
2023/07/14 01:46:51;;;;;;;9.68;6.78;;;;;;;24.65;nan;62146.25;5033022;28;20560;-59
2023/07/14 01:49:29;;;;;;;12.57;6.85;;;;;;;24.97;nan;62174.88;5034532;28;20167;-61
2023/07/14 01:51:59;;;;;;;10.43;7.05;;;;;;;24.67;nan;62302.72;5034577;28;20308;-61
2023/07/14 01:54:31;;;;;;;10.30;7.20;;;;;;;24.59;nan;62095.00;5034689;28;20195;-59
2023/07/14 01:57:01;;;;;;;11.75;7.47;;;;;;;24.60;nan;62248.25;5034386;28;20305;-60
2023/07/14 01:59:33;;;;;;;11.20;7.28;;;;;;;24.72;nan;62195.47;5034182;28;20178;-60
2023/07/14 02:02:01;;;;;;;10.23;7.25;;;;;;;24.71;nan;62426.97;5034645;28;20163;-59
2023/07/14 02:04:31;;;;;;;10.35;7.00;;;;;;;24.45;nan;62111.00;5035194;28;20219;-60
2023/07/14 02:06:58;;;;;;;11.05;6.75;;;;;;;24.65;nan;62143.63;5034533;28;20164;-61
2023/07/14 02:09:24;;;;;;;10.18;6.72;;;;;;;24.35;nan;62046.78;5034156;28;20295;-60
2023/07/14 02:12:03;;;;;;;12.32;7.28;;;;;;;24.42;nan;61999.88;5033929;28;20178;-61
2023/07/14 02:14:51;;;;;;;10.85;6.78;;;;;;;24.55;nan;62158.94;5034491;28;20186;-60
2023/07/14 02:17:25;;;;;;;9.57;6.43;;;;;;;24.56;nan;62122.94;5023328;28;20222;-61
2023/07/14 02:19:52;;;;;;;10.93;6.88;;;;;;;24.54;nan;62073.63;5034160;28;20171;-60
2023/07/14 02:22:18;;;;;;;12.73;6.88;;;;;;;24.30;nan;62198.38;5033840;28;20168;-60
2023/07/14 02:24:46;;;;;;;12.02;7.28;;;;;;;24.28;nan;62054.50;5034342;28;20171;-59
2023/07/14 02:27:12;;;;;;;11.85;6.75;;;;;;;22.37;nan;61869.44;5034019;28;20182;-60
2023/07/14 02:29:38;;;;;;;12.27;7.32;;;;;;;24.22;nan;62055.50;5034155;28;20175;-61
2023/07/14 02:32:20;;;;;;;12.07;7.15;;;;;;;24.13;nan;61970.09;5034058;28;20176;-60
2023/07/14 02:34:53;;;;;;;9.63;7.00;;;;;;;24.13;nan;62069.31;5032438;28;20199;-60
2023/07/14 02:38:01;;;;;;;9.85;6.10;;;;;;;24.37;nan;62127.44;5033121;28;20167;-60
2023/07/14 02:40:30;;;;;;;10.30;6.85;;;;;;;24.07;nan;62028.53;4991470;28;20259;-60
2023/07/14 02:42:55;;;;;;;10.32;6.55;;;;;;;24.26;nan;62078.91;4991381;28;20188;-60
2023/07/14 02:45:23;;;;;;;11.82;8.38;;;;;;;23.96;nan;62014.00;5012159;28;20282;-60
2023/07/14 02:47:53;;;;;;;12.00;7.00;;;;;;;24.10;nan;61995.41;5033098;28;20163;-60
2023/07/14 02:50:18;;;;;;;13.25;7.43;;;;;;;23.47;nan;61963.50;5031162;28;20175;-60
2023/07/14 02:52:43;;;;;;;11.95;7.28;;;;;;;23.85;nan;62074.56;5031782;28;20651;-61
2023/07/14 02:55:10;;;;;;;12.70;6.68;;;;;;;24.13;nan;61981.13;5032507;28;20248;-60
2023/07/14 02:57:35;;;;;;;14.25;6.82;;;;;;;23.99;nan;61977.69;5031748;28;20198;-61
2023/07/14 03:00:01;;;;;;;10.27;7.03;;;;;;;24.03;nan;62162.94;5032534;28;20167;-60
2023/07/14 03:02:26;;;;;;;9.82;6.80;;;;;;;24.07;nan;62125.72;5031737;28;20180;-59
2023/07/14 03:04:51;;;;;;;13.77;7.20;;;;;;;24.08;nan;62100.75;5030513;28;20669;-60
2023/07/14 03:07:17;;;;;;;10.35;6.93;;;;;;;23.69;nan;62098.09;5032169;28;20620;-59
2023/07/14 03:09:42;;;;;;;11.65;6.97;;;;;;;23.66;nan;61964.81;5032642;28;20197;-60
2023/07/14 03:12:09;;;;;;;12.90;7.30;;;;;;;23.87;nan;62076.28;5032985;28;20195;-60
2023/07/14 03:14:34;;;;;;;12.00;6.85;;;;;;;23.63;nan;62055.31;5032169;28;20670;-61
2023/07/14 03:17:00;;;;;;;13.55;7.15;;;;;;;23.72;nan;62096.88;5032578;28;20263;-59
2023/07/14 03:19:25;;;;;;;11.63;6.95;;;;;;;24.02;nan;62082.91;5032487;28;20183;-61
2023/07/14 03:21:51;;;;;;;13.30;6.80;;;;;;;23.14;nan;62041.25;5031909;28;20214;-59
2023/07/14 03:24:16;;;;;;;12.07;6.20;;;;;;;24.35;nan;62355.03;5031024;28;20178;-60
2023/07/14 03:26:42;;;;;;;9.55;6.50;;;;;;;24.59;nan;62153.06;5030651;28;20229;-60
2023/07/14 03:29:07;;;;;;;12.02;7.20;;;;;;;24.58;nan;62151.91;5032293;28;20179;-60
2023/07/14 03:31:33;;;;;;;11.65;7.07;;;;;;;25.05;nan;62193.91;5031716;28;20179;-60
2023/07/14 03:33:58;;;;;;;12.15;7.18;;;;;;;25.03;nan;62293.59;5031772;28;20160;-59
2023/07/14 03:36:25;;;;;;;12.73;7.10;;;;;;;25.47;nan;62235.97;5031937;28;20583;-60
2023/07/14 03:39:22;;;;;;;10.43;6.60;;;;;;;25.83;nan;62373.34;5032231;28;20178;-61
2023/07/14 03:41:48;;;;;;;13.13;7.43;;;;;;;26.06;nan;62364.97;5032251;28;20201;-60
2023/07/14 03:44:13;;;;;;;15.85;6.70;;;;;;;26.18;nan;62345.19;5031883;28;20643;-60
2023/07/14 03:46:39;;;;;;;9.77;7.20;;;;;;;26.23;nan;62440.00;5031893;28;20174;-60
2023/07/14 03:49:04;;;;;;;11.48;6.70;;;;;;;26.43;nan;62396.19;5031539;28;20635;-60
2023/07/14 03:51:30;;;;;;;9.75;6.50;;;;;;;26.80;nan;62512.47;5031594;28;20176;-59
2023/07/14 03:53:56;;;;;;;9.95;6.95;;;;;;;27.00;nan;62568.88;5031641;28;20167;-60
2023/07/14 03:56:21;;;;;;;9.57;6.35;;;;;;;27.25;nan;62634.25;5029412;28;20203;-60
2023/07/14 03:58:47;;;;;;;11.95;6.13;;;;;;;27.66;nan;62596.59;5031403;28;20223;-60
2023/07/14 04:01:13;;;;;;;9.40;5.97;;;;;;;28.05;nan;62740.53;5030708;28;20171;-60
2023/07/14 04:03:39;;;;;;;9.20;5.70;;;;;;;28.35;nan;62819.06;5031493;28;20303;-60
2023/07/14 04:06:04;;;;;;;8.13;5.53;;;;;;;28.84;nan;62850.53;5031546;28;20285;-59
2023/07/14 04:08:42;;;;;;;11.77;6.03;;;;;;;29.44;nan;62820.81;5031668;28;20172;-61
2023/07/14 04:11:08;;;;;;;8.38;5.82;;;;;;;25.96;nan;63721.56;5032205;28;20162;-60
2023/07/14 04:13:33;;;;;;;9.73;5.50;;;;;;;;;;5031881;28;20182;-61
2023/07/14 04:15:59;;;;;;;11.18;5.93;;;;;;;30.90;nan;63071.19;5031662;28;20210;-59
2023/07/14 04:18:24;;;;;;;13.30;5.57;;;;;;;30.85;nan;63081.28;5031549;28;20560;-60
2023/07/14 04:20:50;;;;;;;10.30;5.72;;;;;;;31.09;nan;63103.63;5031664;28;20179;-60
2023/07/14 04:23:19;;;;;;;8.90;5.38;;;;;;;31.37;nan;63241.53;5032088;28;20171;-61
2023/07/14 04:25:44;;;;;;;10.45;5.10;;;;;;;31.32;nan;63214.06;5031904;28;20560;-61
2023/07/14 04:28:11;;;;;;;6.90;5.05;;;;;;;31.84;nan;63276.66;5032131;28;20209;-61
2023/07/14 04:30:36;;;;;;;11.05;5.03;;;;;;;32.40;nan;63366.53;5031759;28;20174;-61
2023/07/14 04:33:02;;;;;;;7.80;4.70;;;;;;;32.07;nan;63292.00;5031710;28;20202;-59
2023/07/14 04:35:27;;;;;;;7.72;4.78;;;;;;;32.22;nan;63333.13;5031210;28;20265;-60
2023/07/14 04:37:53;;;;;;;8.18;5.22;;;;;;;32.64;nan;63351.31;5031568;28;20170;-59
2023/07/14 04:40:18;;;;;;;7.25;4.80;;;;;;;32.36;nan;63401.63;5031776;28;20178;-60
2023/07/14 04:42:44;;;;;;;9.40;5.20;;;;;;;32.68;nan;63454.50;5031447;28;20707;-60
2023/07/14 04:45:11;;;;;;;7.90;5.20;;;;;;;33.11;nan;63519.47;5030147;28;20178;-59
2023/07/14 04:47:36;;;;;;;9.77;5.55;;;;;;;33.01;nan;63423.16;5031653;28;20222;-59
2023/07/14 04:50:02;;;;;;;10.27;5.68;;;;;;;32.11;nan;63370.13;5031394;28;20574;-60
2023/07/14 04:52:28;;;;;;;8.27;5.00;;;;;;;31.49;nan;63295.00;5031664;28;20163;-59
2023/07/14 04:54:53;;;;;;;8.60;5.20;;;;;;;32.46;nan;63280.25;5032156;28;20253;-61
2023/07/14 04:57:18;;;;;;;12.38;5.10;;;;;;;32.97;nan;63445.00;5031577;28;20195;-60
2023/07/14 04:59:44;;;;;;;9.38;5.40;;;;;;;33.20;nan;63606.19;5031652;28;20281;-60
2023/07/14 05:02:09;;;;;;;10.02;5.50;;;;;;;33.68;nan;63579.53;5031524;28;20182;-61
2023/07/14 05:04:41;;;;;;;10.43;5.30;;;;;;;33.93;nan;63617.91;5031606;28;20258;-61
2023/07/14 05:07:07;;;;;;;12.35;5.65;;;;;;;33.89;nan;63619.16;5032433;28;20171;-61
2023/07/14 05:09:34;;;;;;;8.27;5.55;;;;;;;33.47;nan;63491.03;5034988;28;20529;-61
2023/07/14 05:12:00;;;;;;;8.65;5.45;;;;;;;33.59;nan;63545.22;5035133;28;20170;-60
2023/07/14 05:14:27;;;;;;;11.43;5.53;;;;;;;32.93;nan;63413.91;5033597;28;20175;-59
2023/07/14 05:16:53;;;;;;;10.80;5.57;;;;;;;32.71;nan;63357.31;5034265;28;20213;-60
2023/07/14 05:19:19;;;;;;;11.10;5.30;;;;;;;32.64;nan;63484.28;5034504;28;20210;-59
2023/07/14 05:21:44;;;;;;;11.45;5.43;;;;;;;32.88;nan;63477.00;5035091;28;20179;-60
2023/07/14 05:24:09;;;;;;;9.77;5.57;;;;;;;33.02;nan;63482.56;5034957;28;20221;-62
2023/07/14 05:26:35;;;;;;;8.73;5.15;;;;;;;32.62;nan;63365.44;5033874;28;20569;-60
2023/07/14 05:29:02;;;;;;;8.77;5.57;;;;;;;32.92;nan;63423.34;5035121;28;20269;-60
2023/07/14 05:31:28;;;;;;;9.85;5.32;;;;;;;33.36;nan;63549.88;5034537;28;20558;-61
2023/07/14 05:33:53;;;;;;;7.63;4.78;;;;;;;33.39;nan;63572.47;5034619;28;20177;-60
2023/07/14 05:36:19;;;;;;;7.25;4.90;;;;;;;34.02;nan;63633.63;5034846;28;20206;-61
2023/07/14 05:38:44;;;;;;;7.13;5.00;;;;;;;33.66;nan;63632.31;5033913;28;20183;-60
2023/07/14 05:41:09;;;;;;;12.88;4.25;;;;;;;33.84;nan;63639.31;5034418;28;20191;-59
2023/07/14 05:43:35;;;;;;;7.63;4.82;;;;;;;33.96;nan;63687.69;5033828;28;20197;-64
2023/07/14 05:46:00;;;;;;;6.60;4.50;;;;;;;33.95;nan;63846.34;5033496;28;20182;-60
2023/07/14 05:48:26;;;;;;;8.80;5.25;;;;;;;33.79;nan;63620.28;5034282;28;20518;-62
2023/07/14 05:50:52;;;;;;;13.65;6.30;;;;;;;33.26;nan;63464.69;5033779;28;20187;-61
2023/07/14 05:53:18;;;;;;;11.25;5.82;;;;;;;33.46;nan;63516.38;5033616;28;20174;-62
2023/07/14 05:55:44;;;;;;;8.40;4.68;;;;;;;33.36;nan;63616.16;5033422;28;20245;-61
2023/07/14 05:58:09;;;;;;;15.23;5.65;;;;;;;33.28;nan;63547.09;5032909;28;20202;-63
2023/07/14 06:00:42;;;;;;;8.57;5.15;;;;;;;33.37;nan;63654.44;5033036;28;20170;-62
2023/07/14 06:03:16;;;;;;;9.30;5.13;;;;;;;33.45;nan;63554.97;5033476;28;20280;-63
2023/07/14 06:05:42;;;;;;;8.98;5.30;;;;;;;33.66;nan;63611.72;5032793;28;20254;-61
2023/07/14 06:08:08;;;;;;;8.85;4.97;;;;;;;33.75;nan;63705.84;5031918;28;20175;-62
2023/07/14 06:10:34;;;;;;;9.45;5.15;;;;;;;30.76;nan;63361.88;5032610;28;20167;-63
2023/07/14 06:13:00;;;;;;;9.95;5.00;;;;;;;34.20;nan;63691.63;5032048;28;20278;-63
2023/07/14 06:15:28;;;;;;;9.50;5.50;;;;;;;33.56;nan;63533.22;5033018;28;20553;-63
2023/07/14 06:17:53;;;;;;;13.05;5.10;;;;;;;33.49;nan;63604.69;5033301;28;20187;-62
2023/07/14 06:20:20;;;;;;;9.10;5.13;;;;;;;33.30;nan;63461.94;5032225;28;20186;-63
2023/07/14 06:22:48;;;;;;;11.80;5.40;;;;;;;33.50;nan;63542.19;5032538;28;20570;-64
2023/07/14 06:25:14;;;;;;;8.90;5.03;;;;;;;33.60;nan;63511.34;5032997;28;20261;-63
2023/07/14 06:27:39;;;;;;;9.48;5.05;;;;;;;33.73;nan;63606.53;5032621;28;20240;-63
2023/07/14 06:30:05;;;;;;;9.60;5.28;;;;;;;33.71;nan;63603.66;5031965;28;20618;-64
2023/07/14 06:32:31;;;;;;;12.07;5.65;;;;;;;33.43;nan;63478.44;5032685;28;20281;-62
2023/07/14 06:34:56;;;;;;;9.80;4.95;;;;;;;33.94;nan;63653.56;5032265;28;20202;-64
2023/07/14 06:37:24;;;;;;;8.43;5.00;;;;;;;33.83;nan;63699.19;5032013;28;20213;-64
2023/07/14 06:39:50;;;;;;;9.50;4.97;;;;;;;33.61;nan;63605.31;5032080;28;20642;-61
2023/07/14 06:42:16;;;;;;;7.72;5.05;;;;;;;34.03;nan;63685.19;5032086;28;20174;-61
2023/07/14 06:44:42;;;;;;;8.73;5.22;;;;;;;34.24;nan;63695.66;5032268;28;20173;-62
2023/07/14 06:47:08;;;;;;;7.18;5.13;;;;;;;34.16;nan;63686.97;5032596;28;20348;-62
2023/07/14 06:49:33;;;;;;;8.77;5.20;;;;;;;34.20;nan;63760.66;5032610;28;20240;-63
2023/07/14 06:51:58;;;;;;;11.07;4.85;;;;;;;33.94;nan;63656.78;5032762;28;20167;-64
2023/07/14 06:54:24;;;;;;;10.18;5.55;;;;;;;34.02;nan;63679.31;5031584;28;20176;-63
2023/07/14 06:56:49;;;;;;;9.40;4.85;;;;;;;34.03;nan;63656.59;5032636;28;20653;-61
2023/07/14 06:59:15;;;;;;;9.50;4.90;;;;;;;34.15;nan;63722.97;5032273;28;20556;-61
2023/07/14 07:01:41;;;;;;;9.45;5.40;;;;;;;33.89;nan;63664.28;5032409;28;20175;-63
2023/07/14 07:04:06;;;;;;;8.63;5.13;;;;;;;34.36;nan;63730.81;5032046;28;20297;-63
2023/07/14 07:06:32;;;;;;;8.82;4.88;;;;;;;34.30;nan;63684.03;5032439;28;20171;-62
2023/07/14 07:08:57;;;;;;;9.75;5.28;;;;;;;33.88;nan;63606.81;5032020;28;20213;-63
2023/07/14 07:11:22;;;;;;;8.82;5.20;;;;;;;34.07;nan;63687.19;5032262;28;20170;-63
2023/07/14 07:13:48;;;;;;;9.60;5.13;;;;;;;34.03;nan;63704.34;5032013;28;20557;-64
2023/07/14 07:16:15;;;;;;;10.50;5.80;;;;;;;34.15;nan;63701.75;5031947;28;20190;-63
2023/07/14 07:18:40;;;;;;;13.73;5.40;;;;;;;34.46;nan;63684.53;5031626;28;20226;-63
2023/07/14 07:21:07;;;;;;;8.82;5.07;;;;;;;34.50;nan;63741.69;5032471;28;20637;-63
2023/07/14 07:23:33;;;;;;;9.18;5.15;;;;;;;34.13;nan;63599.13;5031346;28;20182;-64
2023/07/14 07:25:59;;;;;;;8.35;4.80;;;;;;;34.36;nan;63762.69;5031675;28;20250;-62
2023/07/14 07:28:24;;;;;;;9.05;5.35;;;;;;;34.13;nan;63691.44;5031668;28;20167;-64
2023/07/14 07:30:50;;;;;;;10.45;5.43;;;;;;;34.40;nan;63751.38;5031023;28;20233;-64
2023/07/14 07:33:16;;;;;;;8.40;4.90;;;;;;;34.64;nan;64031.56;5031311;28;20248;-61
2023/07/14 07:35:42;;;;;;;9.45;5.00;;;;;;;34.49;nan;63788.94;5031846;28;20213;-62
2023/07/14 07:38:10;;;;;;;7.90;5.40;;;;;;;34.84;nan;63810.34;5031927;28;20178;-62
2023/07/14 07:40:37;;;;;;;8.98;5.20;;;;;;;34.77;nan;63990.91;5032111;28;20185;-62
2023/07/14 07:43:02;;;;;;;7.78;5.15;;;;;;;34.47;nan;63772.75;5030057;28;20561;-62
2023/07/14 07:45:28;;;;;;;10.25;5.28;;;;;;;34.50;nan;63768.25;5031367;28;20186;-64
2023/07/14 07:47:53;;;;;;;7.55;4.70;;;;;;;34.99;nan;63853.75;5031781;28;20224;-62
2023/07/14 07:50:19;;;;;;;7.32;5.00;;;;;;;35.17;nan;63967.13;5031506;28;20171;-62
2023/07/14 07:52:45;;;;;;;10.00;5.70;;;;;;;35.12;nan;63927.31;5031207;28;20682;-62
2023/07/14 07:55:11;;;;;;;7.50;4.63;;;;;;;35.10;nan;63874.47;5031554;28;20202;-63
2023/07/14 07:57:36;;;;;;;11.73;5.20;;;;;;;34.72;nan;63942.59;5031457;28;20600;-63
2023/07/14 08:00:04;;;;;;;8.75;5.25;;;;;;;34.85;nan;63909.25;5031162;28;20198;-62
2023/07/14 08:02:29;;;;;;;14.45;5.50;;;;;;;34.72;nan;63812.41;5031282;28;20171;-62
2023/07/14 08:04:55;;;;;;;9.95;6.00;;;;;;;34.72;nan;63803.84;5031805;28;20167;-63
2023/07/14 08:07:20;;;;;;;7.43;4.43;;;;;;;35.01;nan;63853.41;5031751;28;20611;-63
2023/07/14 08:09:46;;;;;;;9.18;5.25;;;;;;;35.24;nan;63879.50;5031670;28;20182;-61
2023/07/14 08:12:11;;;;;;;8.48;5.22;;;;;;;35.35;nan;63910.91;5031221;28;20209;-63
2023/07/14 08:14:53;;;;;;;10.35;5.45;;;;;;;35.32;nan;63894.13;5031646;28;20209;-62
2023/07/14 08:17:27;;;;;;;8.98;5.25;;;;;;;35.65;nan;63971.78;5031289;28;20650;-62
2023/07/14 08:19:53;;;;;;;8.88;5.03;;;;;;;35.57;nan;63965.09;5031427;28;20179;-63
2023/07/14 08:22:20;;;;;;;10.50;5.60;;;;;;;35.46;nan;63913.03;5031136;28;20261;-61
2023/07/14 08:24:46;;;;;;;11.13;5.43;;;;;;;35.62;nan;64035.38;5031434;28;20170;-65
2023/07/14 08:27:11;;;;;;;8.43;5.47;;;;;;;35.67;nan;64011.34;5031266;28;20228;-60
2023/07/14 08:29:37;;;;;;;8.05;5.10;;;;;;;35.91;nan;64046.63;5031079;28;20552;-61
2023/07/14 08:32:02;;;;;;;8.35;4.93;;;;;;;35.87;nan;64029.25;5031047;28;20634;-64
2023/07/14 08:34:29;;;;;;;10.13;5.47;;;;;;;35.89;nan;64018.84;5031531;28;20174;-62
2023/07/14 08:36:55;;;;;;;9.52;5.13;;;;;;;35.35;nan;64041.22;5031302;28;20175;-62
2023/07/14 08:39:20;;;;;;;14.13;5.63;;;;;;;36.25;nan;64092.09;5031182;28;20171;-61
2023/07/14 08:41:52;;;;;;;9.85;5.47;;;;;;;36.42;nan;64387.78;5031621;28;20175;-61
2023/07/14 08:44:17;;;;;;;9.90;5.63;;;;;;;36.25;nan;64097.44;5035118;28;20624;-61
2023/07/14 08:46:51;;;;;;;8.23;5.40;;;;;;;36.41;nan;64112.19;5034577;28;20261;-61
2023/07/14 08:49:28;;;;;;;9.35;5.28;;;;;;;35.93;nan;64038.31;5033871;28;20201;-61
2023/07/14 08:52:05;;;;;;;7.60;5.40;;;;;;;35.56;nan;63945.91;5035004;28;20185;-62
2023/07/14 08:55:11;;;;;;;8.30;4.90;;;;;;;36.12;nan;64050.34;5034985;28;20170;-62
2023/07/14 08:58:14;;;;;;;12.10;5.03;;;;;;;36.42;nan;64158.66;5034722;28;20614;-60
2023/07/14 09:00:50;;;;;;;9.80;5.38;;;;;;;36.34;nan;64088.06;5034958;28;20196;-61
2023/07/14 09:03:56;;;;;;;8.73;5.15;;;;;;;35.86;nan;64025.44;5034731;28;20733;-62
2023/07/14 09:06:40;;;;;;;9.85;5.35;;;;;;;35.94;nan;64060.75;4992880;28;20186;-60
2023/07/14 09:09:18;;;;;;;7.97;5.22;;;;;;;36.40;nan;64095.03;4993127;28;20263;-62
2023/07/14 09:11:52;;;;;;;11.35;5.55;;;;;;;36.20;nan;64051.06;5021799;28;20672;-61
2023/07/14 09:14:39;;;;;;;13.70;5.05;;;;;;;36.25;nan;64112.81;5034746;28;20638;-61
2023/07/14 09:17:28;;;;;;;7.70;5.10;;;;;;;36.11;nan;64011.31;5034112;28;20177;-60
2023/07/14 09:20:20;;;;;;;9.10;4.78;;;;;;;36.44;nan;64153.00;5034509;28;20198;-62
2023/07/14 09:23:04;;;;;;;9.02;5.28;;;;;;;36.17;nan;64108.84;5018607;28;20248;-61
2023/07/14 09:25:51;;;;;;;14.35;5.25;;;;;;;36.40;nan;64082.31;5033537;28;20175;-60
2023/07/14 09:28:35;;;;;;;11.35;5.45;;;;;;;36.20;nan;64160.28;5034705;28;20187;-61
2023/07/14 09:31:05;;;;;;;7.65;4.57;;;;;;;36.38;nan;64229.19;5032684;28;20187;-62
2023/07/14 09:33:47;;;;;;;8.82;4.82;;;;;;;36.50;nan;64192.53;5045197;28;20235;-62
2023/07/14 09:36:13;;;;;;;8.68;5.10;;;;;;;36.46;nan;64136.66;5033918;28;20655;-60
2023/07/14 09:38:50;;;;;;;8.43;5.03;;;;;;;36.22;nan;64151.94;5033687;28;20274;-61
2023/07/14 09:41:16;;;;;;;7.88;5.25;;;;;;;36.35;nan;64078.59;5033575;28;20193;-61
2023/07/14 09:43:45;;;;;;;9.98;5.40;;;;;;;36.38;nan;64183.31;5033569;28;20182;-60
2023/07/14 09:46:17;;;;;;;8.95;4.55;;;;;;;36.26;nan;64177.91;5033646;28;20179;-62
2023/07/14 09:48:50;;;;;;;14.63;5.45;;;;;;;36.46;nan;64137.25;5032558;28;20588;-63
2023/07/14 09:51:23;;;;;;;8.65;5.38;;;;;;;36.76;nan;64152.34;5033404;28;20262;-63
2023/07/14 09:54:01;;;;;;;9.48;4.90;;;;;;;36.52;nan;64122.31;5032829;28;20883;-66
2023/07/14 09:56:32;;;;;;;8.85;5.55;;;;;;;36.19;nan;63983.91;5032380;28;20198;-65
2023/07/14 09:59:04;;;;;;;7.90;5.35;;;;;;;36.38;nan;64231.25;5033828;28;20201;-65
2023/07/14 10:01:31;;;;;;;9.43;4.90;;;;;;;36.39;nan;64102.47;5033846;28;20547;-61
2023/07/14 10:04:06;;;;;;;10.25;5.25;;;;;;;36.48;nan;64120.94;5033848;28;20223;-61
2023/07/14 10:06:31;;;;;;;8.60;5.15;;;;;;;36.48;nan;64139.00;5033715;28;20174;-62
2023/07/14 10:09:20;;;;;;;8.73;5.00;;;;;;;36.41;nan;64179.38;5033530;28;20198;-63
2023/07/14 10:11:52;;;;;;;9.93;5.20;;;;;;;36.39;nan;64168.50;5033611;28;20170;-65
2023/07/14 10:14:49;;;;;;;9.32;4.90;;;;;;;36.42;nan;64180.56;5033582;28;20724;-64
2023/07/14 10:17:26;;;;;;;9.10;5.28;;;;;;;36.57;nan;64154.78;5031574;28;20187;-65
2023/07/14 10:19:51;;;;;;;9.77;5.00;;;;;;;36.80;nan;64218.31;5033521;28;20178;-60
2023/07/14 10:22:24;;;;;;;7.28;5.25;;;;;;;36.89;nan;64186.72;5033611;28;20563;-62
2023/07/14 10:25:01;;;;;;;8.98;5.20;;;;;;;36.79;nan;64159.06;5032057;28;20618;-62
2023/07/14 10:27:30;;;;;;;9.32;5.85;;;;;;;37.14;nan;64252.59;5032020;28;20193;-60
2023/07/14 10:30:20;;;;;;;8.45;5.22;;;;;;;37.24;nan;64269.56;5032634;28;20584;-61
2023/07/14 10:32:51;;;;;;;8.60;4.90;;;;;;;37.18;nan;64244.47;5032911;28;20189;-60
2023/07/14 10:35:22;;;;;;;7.88;4.60;;;;;;;37.25;nan;64262.72;5032032;28;20865;-63
2023/07/14 10:38:26;;;;;;;8.35;5.05;;;;;;;37.45;nan;64349.50;5032043;28;20175;-61
2023/07/14 10:40:58;;;;;;;9.00;4.70;;;;;;;37.36;nan;64309.66;5039534;28;20206;-59
2023/07/14 10:43:32;;;;;;;8.77;5.13;;;;;;;37.28;nan;64305.66;5032899;28;20174;-62
2023/07/14 10:46:03;;;;;;;10.10;5.28;;;;;;;37.22;nan;64280.59;5033217;28;20174;-61
2023/07/14 10:48:56;;;;;;;8.15;5.40;;;;;;;37.30;nan;64284.56;5032248;28;20163;-64
2023/07/14 10:51:30;;;;;;;9.25;5.05;;;;;;;37.43;nan;64339.16;5031409;28;20607;-63
2023/07/14 10:54:01;;;;;;;7.18;4.97;;;;;;;37.68;nan;64379.00;5032678;28;20647;-64
2023/07/14 10:57:00;;;;;;;9.50;5.05;;;;;;;37.61;nan;64389.53;5032041;28;20708;-60
2023/07/14 10:59:35;;;;;;;7.72;4.90;;;;;;;37.19;nan;64277.06;5032880;28;20631;-61
2023/07/14 11:02:21;;;;;;;8.60;5.03;;;;;;;37.43;nan;64336.50;5033176;28;20653;-67
2023/07/14 11:05:23;;;;;;;7.07;5.10;;;;;;;37.32;nan;64348.25;5032257;28;20182;-63
2023/07/14 11:07:49;;;;;;;8.52;5.15;;;;;;;37.32;nan;64270.31;4991371;28;20184;-62
2023/07/14 11:11:03;;;;;;;8.88;5.15;;;;;;;37.63;nan;64495.41;5025058;28;20256;-62
2023/07/14 11:13:34;;;;;;;8.40;4.68;;;;;;;37.82;nan;64357.38;5032207;28;20186;-69
2023/07/14 11:16:08;;;;;;;8.18;4.85;;;;;;;37.69;nan;64379.59;5032337;28;20207;-62
2023/07/14 11:18:45;;;;;;;17.02;5.47;;;;;;;37.49;nan;64277.34;5032348;28;20261;-62
2023/07/14 11:21:16;;;;;;;12.57;6.38;;;;;;;37.97;nan;64422.91;5032740;28;20175;-61
2023/07/14 11:23:44;;;;;;;9.30;5.57;;;;;;;38.08;nan;64475.88;5032769;28;20178;-62
2023/07/14 11:26:28;;;;;;;9.50;4.65;;;;;;;38.20;nan;64481.28;5032600;28;20632;-64
2023/07/14 11:29:10;;;;;;;10.82;5.22;;;;;;;38.19;nan;64555.50;5033051;28;20184;-59
2023/07/14 11:32:16;;;;;;;13.73;5.80;;;;;;;38.28;nan;64514.66;5032298;28;20166;-60
2023/07/14 11:35:13;;;;;;;9.27;5.45;;;;;;;38.15;nan;64446.63;5002402;28;20234;-61
2023/07/14 11:38:06;;;;;;;12.88;4.95;;;;;;;38.15;nan;64465.31;5021397;28;20190;-62
2023/07/14 11:40:39;;;;;;;11.07;5.57;;;;;;;38.04;nan;64455.16;5032819;28;20179;-62
2023/07/14 11:43:05;;;;;;;8.70;5.50;;;;;;;38.00;nan;64450.50;5032822;28;20254;-61
2023/07/14 11:45:33;;;;;;;8.77;5.00;;;;;;;38.03;nan;64600.94;5031443;28;20208;-60
2023/07/14 11:48:00;;;;;;;8.20;5.32;;;;;;;38.17;nan;64451.03;5032288;28;20180;-59
2023/07/14 11:50:32;;;;;;;9.40;4.72;;;;;;;38.38;nan;64564.34;5031924;28;20210;-63
2023/07/14 11:52:59;;;;;;;8.82;5.30;;;;;;;38.30;nan;64500.97;5031925;28;20170;-60
2023/07/14 11:55:27;;;;;;;12.02;5.78;;;;;;;38.20;nan;64444.44;5032190;28;20972;-62
2023/07/14 11:58:26;;;;;;;8.75;5.00;;;;;;;38.35;nan;64542.13;5032470;28;20587;-64
2023/07/14 12:01:26;;;;;;;8.32;4.97;;;;;;;38.21;nan;64519.84;5032086;28;20185;-62
2023/07/14 12:03:54;;;;;;;9.07;5.00;;;;;;;38.15;nan;64486.13;5031475;28;20681;-62